createdAt,value
2019-03-15T00:02:17.883Z,4.47
2019-03-15T00:05:01.166Z,5.37
2019-03-15T00:07:46.098Z,6.90
2019-03-15T00:10:40.441Z,10.77
2019-03-15T00:13:30.342Z,10.37
2019-03-15T00:16:18.079Z,17.07
2019-03-15T00:18:57.357Z,16.10
2019-03-15T00:21:38.946Z,16.27
2019-03-15T00:24:17.752Z,17.07
2019-03-15T00:26:55.381Z,15.77
2019-03-15T00:29:32.508Z,16.90
2019-03-15T00:32:11.354Z,13.37
2019-03-15T00:34:48.505Z,7.83
2019-03-15T00:37:27.066Z,7.80
2019-03-15T00:40:06.980Z,7.90
2019-03-15T00:42:44.057Z,5.17
2019-03-15T00:45:22.855Z,5.03
2019-03-15T00:47:59.944Z,5.23
2019-03-15T00:50:37.010Z,5.53
2019-03-15T00:53:19.164Z,4.07
2019-03-15T00:56:03.969Z,4.93
2019-03-15T00:58:43.971Z,4.20
2019-03-15T01:01:27.022Z,4.83
2019-03-15T01:04:04.680Z,3.80
2019-03-15T01:06:43.197Z,4.03
2019-03-15T01:09:23.470Z,4.67
2019-03-15T01:12:02.851Z,3.20
2019-03-15T01:14:44.977Z,6.10
2019-03-15T01:17:27.722Z,3.30
2019-03-15T01:20:10.225Z,3.53
2019-03-15T01:22:47.590Z,5.03
2019-03-15T01:25:25.201Z,3.27
2019-03-15T01:28:05.368Z,4.13
2019-03-15T01:30:45.718Z,3.33
2019-03-15T01:33:23.184Z,4.30
2019-03-15T01:36:02.457Z,3.80
2019-03-15T01:38:43.206Z,4.00
2019-03-15T01:41:21.405Z,3.50
2019-03-15T01:43:58.597Z,3.80
2019-03-15T01:46:36.982Z,4.37
2019-03-15T01:49:17.617Z,2.87
2019-03-15T01:52:01.844Z,3.97
2019-03-15T01:54:38.993Z,4.67
2019-03-15T01:57:18.008Z,4.00
2019-03-15T02:00:07.423Z,5.10
2019-03-15T02:02:53.586Z,4.63
2019-03-15T02:05:32.406Z,7.43
2019-03-15T02:08:09.726Z,6.63
2019-03-15T02:10:49.796Z,5.23
2019-03-15T02:13:27.381Z,5.67
2019-03-15T02:16:08.739Z,5.63
2019-03-15T02:18:48.334Z,7.87
2019-03-15T02:21:25.455Z,6.57
2019-03-15T02:24:02.464Z,8.23
2019-03-15T02:26:39.664Z,7.50
2019-03-15T02:29:18.071Z,8.87
2019-03-15T02:31:56.989Z,7.63
2019-03-15T02:34:34.075Z,10.03
2019-03-15T02:37:11.273Z,7.77
2019-03-15T02:39:50.122Z,7.33
2019-03-15T02:42:27.271Z,7.77
2019-03-15T02:45:06.369Z,8.20
2019-03-15T02:47:43.749Z,6.20
2019-03-15T02:50:23.679Z,6.43
2019-03-15T02:53:00.931Z,4.80
2019-03-15T02:55:42.682Z,4.50
2019-03-15T02:58:22.495Z,5.23
2019-03-15T03:00:59.641Z,4.37
2019-03-15T03:03:39.612Z,3.93
2019-03-15T03:06:19.076Z,2.20
2019-03-15T03:08:58.885Z,3.67
2019-03-15T03:11:39.460Z,2.43
2019-03-15T03:14:16.493Z,2.43
2019-03-15T03:16:56.360Z,1.73
2019-03-15T03:19:33.541Z,2.10
2019-03-15T03:22:10.595Z,2.83
2019-03-15T03:24:48.386Z,1.23
2019-03-15T03:27:25.992Z,1.30
2019-03-15T03:30:03.348Z,1.77
2019-03-15T03:32:45.357Z,2.53
2019-03-15T03:35:23.030Z,2.13
2019-03-15T03:38:05.224Z,5.13
2019-03-15T03:40:44.432Z,1.80
2019-03-15T03:43:26.240Z,1.53
2019-03-15T03:46:04.994Z,2.57
2019-03-15T03:48:50.069Z,3.47
2019-03-15T03:51:33.396Z,3.33
2019-03-15T03:54:10.623Z,2.90
2019-03-15T03:56:51.831Z,2.43
2019-03-15T03:59:33.429Z,2.90
2019-03-15T04:02:12.656Z,2.27
2019-03-15T04:04:56.689Z,4.17
2019-03-15T04:07:31.524Z,3.77
2019-03-15T04:10:16.690Z,9.63
2019-03-15T04:12:53.764Z,4.33
2019-03-15T04:15:31.786Z,4.87
2019-03-15T04:18:13.413Z,3.70
2019-03-15T04:20:52.619Z,5.33
2019-03-15T04:23:38.237Z,4.17
2019-03-15T04:26:22.419Z,3.93
2019-03-15T04:29:04.278Z,3.10
2019-03-15T04:31:41.330Z,1.97
2019-03-15T04:34:18.484Z,4.63
2019-03-15T04:36:55.512Z,4.73
2019-03-15T04:39:32.632Z,3.60
2019-03-15T04:42:09.841Z,3.00
2019-03-15T04:44:50.599Z,4.93
2019-03-15T04:47:33.044Z,6.20
2019-03-15T04:50:15.704Z,6.07
2019-03-15T04:52:53.287Z,5.13
2019-03-15T04:55:39.749Z,6.10
2019-03-15T04:58:17.622Z,4.97
2019-03-15T05:01:03.795Z,5.90
2019-03-15T05:03:45.340Z,4.33
2019-03-15T05:06:16.432Z,6.03
2019-03-15T05:08:54.716Z,4.80
2019-03-15T05:11:31.732Z,5.80
2019-03-15T05:14:08.949Z,7.13
2019-03-15T05:16:48.978Z,5.87
2019-03-15T05:19:28.686Z,10.70
2019-03-15T05:22:05.878Z,11.67
2019-03-15T05:24:44.752Z,8.80
2019-03-15T05:27:23.129Z,9.57
2019-03-15T05:30:03.372Z,13.27
2019-03-15T05:32:44.469Z,9.93
2019-03-15T05:35:22.284Z,12.97
2019-03-15T05:37:59.587Z,11.83
2019-03-15T05:40:36.760Z,11.63
2019-03-15T05:43:13.968Z,13.37
2019-03-15T05:45:52.850Z,14.77
2019-03-15T05:48:30.145Z,14.37
2019-03-15T05:51:11.623Z,9.50
2019-03-15T05:53:52.689Z,10.97
2019-03-15T05:56:33.837Z,10.37
2019-03-15T05:59:13.687Z,12.47
2019-03-15T06:01:50.788Z,13.03
2019-03-15T06:04:29.753Z,10.00
2019-03-15T06:07:06.847Z,13.87
2019-03-15T06:09:43.979Z,8.57
2019-03-15T06:12:21.096Z,9.87
2019-03-15T06:14:58.132Z,10.50
2019-03-15T06:17:35.338Z,9.47
2019-03-15T06:20:13.893Z,6.87
2019-03-15T06:22:51.052Z,11.87
2019-03-15T06:25:28.236Z,8.50
2019-03-15T06:28:05.383Z,9.07
2019-03-15T06:30:42.509Z,9.80
2019-03-15T06:33:19.576Z,10.80
2019-03-15T06:35:59.122Z,6.80
2019-03-15T06:38:36.163Z,9.43
2019-03-15T06:41:14.506Z,12.53
2019-03-15T06:43:51.631Z,7.90
2019-03-15T06:46:28.697Z,6.43
2019-03-15T06:49:05.726Z,7.53
2019-03-15T06:51:42.747Z,7.00
2019-03-15T06:54:19.797Z,8.17
2019-03-15T06:56:56.915Z,8.97
2019-03-15T06:59:39.815Z,5.37
2019-03-15T07:02:17.241Z,6.80
2019-03-15T07:04:54.352Z,9.93
2019-03-15T07:07:32.256Z,8.27
2019-03-15T07:10:10.657Z,11.47
2019-03-15T07:12:47.632Z,8.33
2019-03-15T07:15:24.700Z,6.67
2019-03-15T07:18:01.677Z,11.20
2019-03-15T07:20:38.763Z,6.53
2019-03-15T07:23:16.469Z,9.97
2019-03-15T07:25:53.569Z,11.80
2019-03-15T07:28:30.605Z,7.87
2019-03-15T07:31:07.647Z,14.57
2019-03-15T07:33:45.066Z,8.13
2019-03-15T07:36:22.862Z,5.20
2019-03-15T07:39:00.837Z,8.47
2019-03-15T07:41:37.950Z,6.77
2019-03-15T07:44:15.775Z,4.87
2019-03-15T07:46:52.820Z,6.53
2019-03-15T07:49:29.853Z,8.43
2019-03-15T07:52:06.954Z,12.73
2019-03-15T07:54:43.953Z,9.70
2019-03-15T07:57:22.087Z,6.50
2019-03-15T08:00:00.569Z,10.73
2019-03-15T08:02:38.367Z,7.17
2019-03-15T08:05:15.365Z,9.43
2019-03-15T08:07:53.071Z,5.83
2019-03-15T08:10:31.154Z,8.10
2019-03-15T08:13:08.207Z,7.13
2019-03-15T08:15:45.251Z,9.50
2019-03-15T08:18:23.967Z,7.13
2019-03-15T08:21:01.028Z,10.80
2019-03-15T08:23:40.463Z,11.40
2019-03-15T08:26:17.548Z,10.60
2019-03-15T08:28:54.621Z,8.40
2019-03-15T08:31:31.629Z,7.50
2019-03-15T08:34:08.598Z,5.17
2019-03-15T08:36:45.668Z,8.53
2019-03-15T08:39:22.705Z,8.13
2019-03-15T08:41:59.771Z,9.40
2019-03-15T08:44:36.820Z,9.50
2019-03-15T08:47:15.561Z,6.80
2019-03-15T08:49:52.816Z,7.57
2019-03-15T08:52:31.338Z,9.17
2019-03-15T08:55:10.359Z,10.20
2019-03-15T08:57:47.422Z,5.37
2019-03-15T09:00:24.506Z,11.10
2019-03-15T09:03:01.578Z,5.23
2019-03-15T09:05:38.630Z,10.77
2019-03-15T09:08:15.664Z,8.43
2019-03-15T09:10:52.707Z,9.73
2019-03-15T09:13:29.781Z,14.87
2019-03-15T09:16:06.836Z,9.83
2019-03-15T09:18:44.101Z,11.67
2019-03-15T09:21:21.132Z,8.90
2019-03-15T09:23:58.550Z,11.53
2019-03-15T09:26:35.622Z,7.50
2019-03-15T09:29:12.677Z,10.73
2019-03-15T09:31:49.737Z,11.33
2019-03-15T09:34:26.809Z,8.77
2019-03-15T09:37:03.897Z,9.10
2019-03-15T09:39:43.052Z,8.07
2019-03-15T09:42:20.136Z,10.13
2019-03-15T09:44:57.152Z,6.67
2019-03-15T09:47:34.236Z,12.27
2019-03-15T09:50:23.166Z,8.30
2019-03-15T09:52:53.577Z,9.10
2019-03-15T09:55:33.341Z,8.57
2019-03-15T09:58:09.321Z,7.00
2019-03-15T10:00:46.383Z,6.53
2019-03-15T10:03:23.438Z,7.70
2019-03-15T10:06:13.963Z,9.37
2019-03-15T10:08:44.560Z,7.50
2019-03-15T10:11:21.706Z,8.63
2019-03-15T10:14:01.999Z,10.97
2019-03-15T10:16:37.365Z,9.73
2019-03-15T10:19:15.710Z,9.87
2019-03-15T10:21:52.735Z,8.90
2019-03-15T10:24:30.596Z,10.93
2019-03-15T10:27:09.137Z,11.43
2019-03-15T10:29:46.214Z,6.43
2019-03-15T10:32:23.602Z,9.57
2019-03-15T10:35:01.814Z,6.97
2019-03-15T10:37:38.827Z,9.07
2019-03-15T10:40:23.456Z,10.00
2019-03-15T10:43:00.461Z,10.43
2019-03-15T10:45:37.504Z,5.90
2019-03-15T10:48:24.474Z,9.70
2019-03-15T10:50:53.166Z,9.07
2019-03-15T10:53:30.218Z,7.10
2019-03-15T10:56:07.265Z,9.13
2019-03-15T10:58:44.316Z,13.97
2019-03-15T11:01:21.405Z,9.23
2019-03-15T11:03:58.507Z,6.07
2019-03-15T11:06:35.575Z,9.30
2019-03-15T11:09:12.600Z,9.13
2019-03-15T11:11:49.658Z,6.83
2019-03-15T11:14:26.651Z,8.10
2019-03-15T11:17:03.720Z,5.20
2019-03-15T11:19:40.714Z,7.60
2019-03-15T11:22:17.839Z,6.87
2019-03-15T11:24:54.825Z,7.43
2019-03-15T11:27:32.395Z,10.67
2019-03-15T11:30:11.348Z,8.70
2019-03-15T11:32:48.625Z,6.83
2019-03-15T11:35:26.817Z,8.63
2019-03-15T11:38:03.883Z,7.47
2019-03-15T11:40:40.879Z,8.20
2019-03-15T11:43:18.809Z,7.30
2019-03-15T11:45:56.147Z,7.27
2019-03-15T11:48:33.204Z,8.47
2019-03-15T11:51:10.218Z,9.93
2019-03-15T11:53:47.287Z,9.10
2019-03-15T11:56:27.230Z,6.20
2019-03-15T11:59:04.432Z,9.80
2019-03-15T12:01:41.459Z,6.53
2019-03-15T12:04:18.505Z,14.47
2019-03-15T12:06:55.524Z,7.23
2019-03-15T12:09:33.154Z,7.90
2019-03-15T12:12:10.257Z,8.23
2019-03-15T12:14:47.303Z,6.13
2019-03-15T12:17:24.327Z,6.13
2019-03-15T12:20:01.351Z,4.60
2019-03-15T12:22:38.373Z,7.47
2019-03-15T12:25:15.426Z,5.97
2019-03-15T12:27:53.671Z,7.37
2019-03-15T12:30:31.032Z,9.70
2019-03-15T12:33:08.078Z,5.67
2019-03-15T12:35:45.149Z,7.90
2019-03-15T12:38:23.139Z,5.83
2019-03-15T12:41:00.221Z,6.77
2019-03-15T12:43:37.226Z,6.00
2019-03-15T12:46:14.319Z,7.53
2019-03-15T12:48:51.380Z,6.90
2019-03-15T12:51:32.378Z,3.80
2019-03-15T12:54:07.179Z,6.47
2019-03-15T12:56:53.721Z,6.13
2019-03-15T12:59:22.886Z,6.07
2019-03-15T13:01:59.978Z,6.00
2019-03-15T13:04:38.289Z,9.83
2019-03-15T13:07:15.346Z,6.90
2019-03-15T13:09:52.405Z,5.30
2019-03-15T13:12:29.435Z,5.20
2019-03-15T13:15:09.645Z,6.53
2019-03-15T13:17:46.709Z,6.53
2019-03-15T13:20:23.733Z,7.23
2019-03-15T13:23:00.777Z,7.37
2019-03-15T13:25:37.800Z,6.13
2019-03-15T13:28:14.831Z,8.60
2019-03-15T13:30:51.853Z,7.57
2019-03-15T13:33:28.915Z,7.00
2019-03-15T13:36:06.581Z,11.63
2019-03-15T13:38:43.640Z,5.93
2019-03-15T13:41:20.699Z,4.57
2019-03-15T13:43:57.756Z,6.70
2019-03-15T13:46:34.835Z,6.33
2019-03-15T13:49:13.506Z,6.53
2019-03-15T13:51:51.093Z,5.40
2019-03-15T13:54:28.497Z,6.73
2019-03-15T13:57:05.519Z,8.07
2019-03-15T13:59:42.577Z,7.07
2019-03-15T14:02:19.663Z,5.90
2019-03-15T14:04:57.265Z,3.47
2019-03-15T14:07:35.748Z,5.57
2019-03-15T14:10:17.963Z,6.93
2019-03-15T14:12:56.481Z,5.13
2019-03-15T14:15:33.495Z,5.63
2019-03-15T14:18:10.548Z,5.17
2019-03-15T14:20:47.599Z,5.30
2019-03-15T14:23:26.019Z,8.37
2019-03-15T14:26:03.048Z,11.27
2019-03-15T14:28:40.109Z,6.97
2019-03-15T14:31:17.145Z,6.43
2019-03-15T14:33:55.259Z,5.63
2019-03-15T14:36:32.355Z,10.87
2019-03-15T14:39:09.438Z,6.50
2019-03-15T14:41:46.597Z,8.23
2019-03-15T14:44:23.992Z,8.23
2019-03-15T14:47:01.226Z,9.37
2019-03-15T14:49:38.428Z,7.83
2019-03-15T14:52:15.480Z,6.53
2019-03-15T14:54:52.573Z,9.07
2019-03-15T14:57:29.581Z,8.30
2019-03-15T15:00:14.882Z,7.20
2019-03-15T15:02:51.897Z,7.77
2019-03-15T15:05:30.101Z,8.20
2019-03-15T15:08:08.913Z,11.60
2019-03-15T15:10:45.996Z,8.00
2019-03-15T15:13:23.045Z,7.90
2019-03-15T15:16:00.157Z,11.20
2019-03-15T15:18:37.192Z,10.47
2019-03-15T15:21:14.248Z,7.03
2019-03-15T15:23:51.307Z,11.67
2019-03-15T15:26:28.357Z,11.70
2019-03-15T15:29:05.682Z,13.07
2019-03-15T15:31:42.734Z,12.43
2019-03-15T15:34:19.809Z,13.17
2019-03-15T15:36:56.886Z,15.27
2019-03-15T15:39:33.992Z,11.10
2019-03-15T15:42:11.045Z,15.17
2019-03-15T15:44:48.086Z,16.83
2019-03-15T15:47:25.163Z,13.67
2019-03-15T15:50:02.214Z,14.30
2019-03-15T15:52:40.953Z,11.10
2019-03-15T15:55:20.332Z,14.07
2019-03-15T15:57:58.601Z,20.47
2019-03-15T16:00:36.758Z,11.57
2019-03-15T16:03:13.772Z,11.33
2019-03-15T16:05:52.205Z,10.50
2019-03-15T16:08:29.806Z,9.93
2019-03-15T16:11:06.845Z,8.00
2019-03-15T16:13:45.722Z,14.03
2019-03-15T16:16:22.800Z,10.33
2019-03-15T16:19:00.120Z,14.37
2019-03-15T16:21:37.183Z,14.80
2019-03-15T16:24:14.171Z,15.80
2019-03-15T16:26:55.142Z,13.77
2019-03-15T16:29:33.420Z,13.50
2019-03-15T16:32:14.063Z,16.23
2019-03-15T16:34:51.146Z,14.47
2019-03-15T16:37:29.233Z,14.90
2019-03-15T16:40:11.013Z,16.70
2019-03-15T16:42:48.014Z,19.70
2019-03-15T16:45:29.651Z,18.27
2019-03-15T16:48:06.700Z,15.40
2019-03-15T16:50:44.966Z,11.57
2019-03-15T16:53:22.141Z,16.93
2019-03-15T16:55:59.270Z,15.27
2019-03-15T16:58:45.466Z,11.93
2019-03-15T17:01:15.114Z,13.53
2019-03-15T17:03:52.363Z,13.23
2019-03-15T17:06:29.427Z,16.47
2019-03-15T17:09:07.016Z,13.17
2019-03-15T17:11:44.075Z,8.27
2019-03-15T17:14:25.738Z,10.30
2019-03-15T17:17:00.830Z,10.37
2019-03-15T17:19:39.528Z,9.20
2019-03-15T17:22:16.731Z,9.63
2019-03-15T17:24:53.789Z,11.63
2019-03-15T17:27:30.818Z,8.80
2019-03-15T17:30:13.090Z,11.43
2019-03-15T17:32:50.290Z,10.23
2019-03-15T17:35:28.139Z,8.20
2019-03-15T17:38:05.208Z,10.23
2019-03-15T17:40:42.295Z,12.00
2019-03-15T17:43:19.331Z,8.90
2019-03-15T17:45:56.372Z,8.10
2019-03-15T17:48:33.411Z,9.80
2019-03-15T17:51:10.468Z,11.27
2019-03-15T17:53:47.554Z,10.33
2019-03-15T17:56:27.656Z,10.63
2019-03-15T17:59:12.202Z,10.43
2019-03-15T18:01:43.761Z,10.70
2019-03-15T18:04:20.965Z,10.53
2019-03-15T18:06:58.010Z,6.83
2019-03-15T18:09:35.041Z,9.87
2019-03-15T18:12:12.177Z,9.23
2019-03-15T18:14:49.299Z,12.00
2019-03-15T18:17:26.570Z,10.43
2019-03-15T18:20:08.728Z,9.37
2019-03-15T18:22:45.977Z,12.57
2019-03-15T18:25:23.064Z,16.97
2019-03-15T18:28:00.114Z,12.70
2019-03-15T18:30:37.204Z,8.77
2019-03-15T18:33:14.216Z,8.20
2019-03-15T18:35:51.296Z,5.93
2019-03-15T18:38:28.396Z,6.53
2019-03-15T18:41:05.485Z,7.33
2019-03-15T18:43:43.988Z,7.33
2019-03-15T18:46:21.022Z,6.73
2019-03-15T18:49:00.183Z,7.53
2019-03-15T18:51:37.272Z,6.60
2019-03-15T18:54:17.643Z,7.13
2019-03-15T18:56:54.973Z,6.37
2019-03-15T18:59:39.868Z,6.50
2019-03-15T19:02:11.781Z,6.97
2019-03-15T19:04:48.857Z,7.73
2019-03-15T19:07:29.364Z,6.83
2019-03-15T19:10:08.917Z,7.80
2019-03-15T19:12:45.951Z,10.67
2019-03-15T19:15:24.421Z,9.13
2019-03-15T19:18:01.853Z,8.23
2019-03-15T19:20:38.977Z,8.00
2019-03-15T19:23:16.097Z,9.93
2019-03-15T19:25:53.202Z,13.40
2019-03-15T19:28:30.366Z,15.63
2019-03-15T19:31:08.702Z,17.27
2019-03-15T19:33:45.779Z,20.53
2019-03-15T19:36:23.467Z,19.07
2019-03-15T19:39:00.549Z,16.07
2019-03-15T19:41:37.681Z,17.43
2019-03-15T19:44:14.722Z,24.30
2019-03-15T19:46:56.906Z,19.57
2019-03-15T19:49:30.449Z,12.97
2019-03-15T19:52:07.529Z,11.90
2019-03-15T19:54:59.453Z,10.33
2019-03-15T19:57:25.000Z,12.10
2019-03-15T20:00:07.454Z,12.60
2019-03-15T20:02:40.990Z,14.00
2019-03-15T20:05:18.489Z,11.93
2019-03-15T20:07:55.493Z,14.00
2019-03-15T20:10:32.637Z,9.70
2019-03-15T20:13:09.667Z,7.13
2019-03-15T20:15:46.721Z,8.10
2019-03-15T20:18:23.750Z,5.17
2019-03-15T20:21:03.925Z,3.50
2019-03-15T20:23:40.920Z,3.87
2019-03-15T20:26:21.118Z,5.07
2019-03-15T20:28:58.148Z,3.93
2019-03-15T20:31:35.232Z,3.17
2019-03-15T20:34:15.517Z,7.40
2019-03-15T20:36:52.588Z,8.27
2019-03-15T20:39:29.612Z,10.07
2019-03-15T20:42:06.725Z,14.93
2019-03-15T20:44:43.688Z,13.50
2019-03-15T20:47:20.761Z,15.20
2019-03-15T20:49:57.817Z,14.00
2019-03-15T20:52:34.900Z,15.83
2019-03-15T20:55:11.996Z,15.80
2019-03-15T20:57:49.134Z,17.07
2019-03-15T21:00:35.493Z,12.30
2019-03-15T21:03:04.887Z,8.20
2019-03-15T21:05:43.521Z,10.70
2019-03-15T21:08:20.909Z,12.37
2019-03-15T21:10:57.914Z,9.97
2019-03-15T21:13:35.048Z,9.87
2019-03-15T21:16:12.116Z,8.77
2019-03-15T21:18:49.198Z,8.77
2019-03-15T21:21:26.257Z,8.90
2019-03-15T21:24:03.432Z,9.30
2019-03-15T21:26:40.520Z,11.60
2019-03-15T21:29:17.649Z,11.00
2019-03-15T21:31:54.735Z,10.80
2019-03-15T21:34:31.772Z,12.10
2019-03-15T21:37:08.820Z,11.87
2019-03-15T21:39:45.891Z,11.33
2019-03-15T21:42:23.095Z,11.97
2019-03-15T21:45:00.389Z,11.67
2019-03-15T21:47:37.540Z,11.70
2019-03-15T21:50:21.867Z,10.27
2019-03-15T21:52:58.891Z,10.87
2019-03-15T21:55:35.978Z,12.70
2019-03-15T21:58:12.967Z,15.30
2019-03-15T22:01:01.618Z,14.93
2019-03-15T22:03:28.889Z,14.90
2019-03-15T22:06:06.053Z,16.03
2019-03-15T22:08:43.084Z,15.13
2019-03-15T22:11:21.597Z,14.83
2019-03-15T22:14:00.000Z,14.40
2019-03-15T22:16:37.167Z,11.57
2019-03-15T22:19:16.676Z,12.40
2019-03-15T22:21:55.459Z,10.57
2019-03-15T22:24:32.486Z,10.23
2019-03-15T22:27:09.553Z,8.70
2019-03-15T22:29:53.579Z,6.40
2019-03-15T22:32:25.421Z,6.07
2019-03-15T22:35:02.436Z,6.07
2019-03-15T22:37:39.575Z,4.37
2019-03-15T22:40:16.714Z,6.23
2019-03-15T22:43:00.581Z,5.03
2019-03-15T22:45:37.685Z,8.30
2019-03-15T22:48:36.089Z,6.63
2019-03-15T22:51:13.158Z,5.43
2019-03-15T22:53:50.238Z,7.23
2019-03-15T22:56:27.288Z,5.80
2019-03-15T22:59:04.387Z,4.10
2019-03-15T23:01:42.026Z,6.10
2019-03-15T23:04:20.465Z,4.47
2019-03-15T23:06:58.489Z,4.63
2019-03-15T23:09:35.601Z,5.83
2019-03-15T23:12:12.906Z,3.83
2019-03-15T23:14:50.242Z,5.07
2019-03-15T23:17:27.313Z,7.63
2019-03-15T23:20:06.240Z,3.50
2019-03-15T23:22:43.313Z,7.17
2019-03-15T23:25:20.460Z,4.43
2019-03-15T23:27:58.166Z,6.47
2019-03-15T23:30:35.285Z,5.50
2019-03-15T23:33:12.354Z,7.13
2019-03-15T23:35:54.100Z,2.73
2019-03-15T23:38:28.934Z,4.50
2019-03-15T23:41:06.009Z,4.60
2019-03-15T23:43:43.095Z,5.80
2019-03-15T23:46:20.236Z,6.20
2019-03-15T23:48:57.314Z,5.53
2019-03-15T23:51:34.501Z,5.40
2019-03-15T23:54:11.531Z,5.40
2019-03-15T23:56:48.642Z,4.63
2019-03-15T23:59:25.706Z,5.40
